• Join FlightAware (Why Join?)
  • Login
  • US Flag 
11:58AM EDT


 

Airport Tracker/Info


-or-


 

Live Flight TrackerFlight Track Log ✈ N8800G ✈ 12-Jun-2013 ✈ KIND - KRDU

Flight Track Log - Related Links

Times and Time Zones

All times are in EDT time to prevent confusion due to time zone crossing. See the N8800G flight status page for this flight to view local times or setup timezone preferences in your user account.

Time Position Orientation Groundspeed Altitude Reporting Facility
EDT Latitude Longitude Course Direction KTS MPH feet Rate Location/Type
05:21PM 39.7000 -86.3000 180° South 135 155 1,400  Level Indianapolis TRACON
05:22PM 39.6667 -86.3333 218° Southwest 156 180 3,300 1,740 Climbing Indianapolis TRACON
05:23PM 39.6167 -86.3500 194° South 243 280 4,900 1,200 Climbing Indianapolis TRACON
05:25PM 39.2551 -86.2622 176° South  Level FlightAware Approximate
05:25PM 39.5408 -86.3433 176° South 253 291 6,100  Level Indianapolis Center
05:26PM 39.1398 -86.2506 176° South  Level FlightAware Approximate
05:26PM 39.4508 -86.3289 173° South 269 310 8,400  Level Indianapolis Center
05:27PM 39.0242 -86.2500 180° South  Level FlightAware Approximate
05:27PM 39.3717 -86.3178 174° South 283 326 10,700  Level Indianapolis Center
05:28PM 39.2819 -86.3072 175° South 320 368 11,700 1,200 Climbing Indianapolis Center
05:29PM 39.1858 -86.2972 175° South 344 396 13,300 1,380 Climbing Indianapolis Center
05:30PM 39.0861 -86.2864 175° South 355 409 14,600 1,200 Climbing Indianapolis Center
05:31PM 38.9603 -86.2722 175° South 375 432 15,800 1,200 Climbing Indianapolis Center
05:32PM 38.8494 -86.2600 175° South 391 450 17,100 1,380 Climbing Indianapolis Center
05:33PM 38.7550 -86.1919 151° Southeast 409 471 18,700 1,320 Climbing Indianapolis Center
05:34PM 38.7225 -86.0497 106° East 417 480 19,900 1,080 Climbing Indianapolis Center
05:35PM 38.6928 -85.9033 105° East 422 486 21,000 960 Climbing Indianapolis Center
05:36PM 38.6636 -85.7633 105° East 426 490 22,000 1,140 Climbing Indianapolis Center
05:37PM 38.6275 -85.5869 105° East 429 494 23,400 1,080 Climbing Indianapolis Center
05:38PM 38.6017 -85.4603 105° East 425 489 24,300 960 Climbing Indianapolis Center
05:39PM 38.5653 -85.2817 105° East 430 495 25,400 900 Climbing Indianapolis Center
05:40PM 38.5331 -85.1283 105° East 431 496 26,200 720 Climbing Indianapolis Center
05:41PM 38.5008 -84.9767 105° East 441 507 26,900 660 Climbing Indianapolis Center
05:42PM 38.4689 -84.8242 105° East 444 511 27,600 660 Climbing Indianapolis Center
05:43PM 38.4358 -84.6697 105° East 447 514 28,300 660 Climbing Indianapolis Center
05:44PM 38.4025 -84.5156 105° East 449 517 29,000 720 Climbing Indianapolis Center
05:45PM 38.3633 -84.3333 105° East 454 522 29,800 720 Climbing Indianapolis Center
05:46PM 38.3297 -84.1797 106° East 451 519 30,600 540 Climbing Indianapolis Center
05:47PM 38.2950 -84.0264 106° East 449 517 31,000 180 Climbing Indianapolis Center
05:49PM 38.2600 -83.8686 106° East 458 527 31,000  Level Indianapolis Center
05:50PM 38.2242 -83.7069 106° East 471 542 31,000  Level Indianapolis Center
05:51PM 38.1881 -83.5436 106° East 476 548 31,000  Level Indianapolis Center
05:52PM 38.1456 -83.3550 106° East 476 548 31,000  Level Indianapolis Center
05:53PM 38.1081 -83.1953 107° East 472 543 31,000  Level Indianapolis Center
05:54PM 38.0719 -83.0367 106° East 469 540 31,000  Level Indianapolis Center
05:55PM 38.0342 -82.8761 107° East 471 542 31,000  Level Indianapolis Center
05:56PM 37.9986 -82.7175 106° East 468 539 31,000  Level Indianapolis Center
05:57PM 37.9614 -82.5581 106° East 468 539 31,000  Level Indianapolis Center
05:58PM 37.9169 -82.3728 107° East 471 542 31,000  Level Indianapolis Center
05:59PM 37.8808 -82.2247 107° East 448 516 31,000  Level Indianapolis Center
06:00PM 37.8469 -82.0794 106° East 423 487 31,000 -300 Level Indianapolis Center
06:01PM 37.8122 -81.9386 107° East 427 491 30,400 -780 Descending Indianapolis Center
06:02PM 37.7756 -81.7908 107° East 437 503 29,400 -1,020 Descending Indianapolis Center
06:03PM 37.7394 -81.6422 107° East 442 509 28,400 -1,080 Descending Indianapolis Center
06:04PM 37.6964 -81.4708 108° East 439 505 27,200 -720 Descending Indianapolis Center
06:05PM 37.6653 -81.3364 106° East 410 472 27,000 -120 Descending Indianapolis Center
06:06PM 37.6311 -81.2025 108° East 411 473 27,000  Level Indianapolis Center
06:07PM 37.5972 -81.0681 108° East 416 479 27,000  Level Indianapolis Center
06:08PM 37.5561 -80.9031 107° East 423 487 27,000  Level Indianapolis Center
06:09PM 37.5228 -80.7636 107° East 427 491 27,000  Level Indianapolis Center
06:10PM 37.5092 -80.6258 97° East 410 472 27,000 -480 Level Indianapolis Center
06:11PM 37.4906 -80.4628 98° East 404 465 26,100 -960 Descending Indianapolis Center
06:12PM 37.4722 -80.3264 100° East 407 468 25,100 -1,020 Descending Indianapolis Center
06:13PM 37.4542 -80.1925 100° East 402 463 24,100 -600 Descending Indianapolis Center
06:14PM 37.3969 -80.0778 122° Southeast 381 438 24,000 -60 Descending Washington Center
06:15PM 37.3272 -79.9850 133° Southeast 386 444 24,000  Level Washington Center
06:16PM 37.2522 -79.8711 130° Southeast 410 472 24,000 -420 Level Washington Center
06:17PM 37.1669 -79.7439 130° Southeast 427 491 23,200 -1,140 Descending Washington Center
06:18PM 37.0933 -79.6356 130° Southeast 421 484 21,800 -1,140 Descending Washington Center
06:19PM 37.0200 -79.5253 130° Southeast 416 479 21,000 -600 Descending Washington Center
06:20PM 36.9542 -79.4283 130° Southeast 416 479 20,700 -540 Descending Washington Center
06:21PM 36.8806 -79.3206 130° Southeast 416 479 20,000 -600 Descending Washington Center
06:22PM 36.8067 -79.2108 130° Southeast 416 479 19,500 -1,020 Descending Washington Center
06:23PM 36.7306 -79.0983 130° Southeast 400 460 18,000 -1,440 Descending Washington Center
06:24PM 36.6539 -79.0119 138° Southeast 386 444 16,600 -1,620 Descending Washington Center
06:25PM 36.6000 -78.9967 167° South 367 422 15,600 -1,980 Descending Washington Center
06:25PM 36.5628 -78.9872 168° South 360 414 14,800 -2,220 Descending Washington Center
06:26PM 36.4614 -78.9544 165° South 345 397 12,500 -1,860 Descending Washington Center
06:27PM 36.3728 -78.9172 161° South 340 391 11,100 -1,500 Descending Washington Center
06:28PM 36.3017 -78.8497 143° Southeast 318 366 9,500 -1,680 Descending Washington Center
06:29PM 36.2322 -78.7903 145° Southeast 311 358 7,800 -1,680 Descending Washington Center
06:30PM 36.1650 -78.7333 146° Southeast 298 343 6,100 -1,620 Descending Washington Center
06:31PM 36.0914 -78.6689 145° Southeast 287 330 4,400 -1,440 Descending Washington Center
06:32PM 36.0361 -78.6358 154° Southeast 263 303 3,300 -720 Descending Washington Center
06:33PM 35.9872 -78.6622 204° Southwest 210 242 3,100 -240 Descending Washington Center